sensor_id;sensor_type;location;lat;lon;timestamp;pressure;altitude;pressure_sealevel;temperature;humidity
46506;BME280;32220;49.808;9.968;2023-04-09T00:02:23;99696.66;;;9.15;66.62
46506;BME280;32220;49.808;9.968;2023-04-09T00:04:51;99702.69;;;9.17;66.17
46506;BME280;32220;49.808;9.968;2023-04-09T00:07:20;99690.41;;;9.16;67.00
46506;BME280;32220;49.808;9.968;2023-04-09T00:09:48;99696.66;;;9.15;66.63
46506;BME280;32220;49.808;9.968;2023-04-09T00:12:16;99698.34;;;9.16;66.53
46506;BME280;32220;49.808;9.968;2023-04-09T00:14:43;99686.91;;;9.15;66.95
46506;BME280;32220;49.808;9.968;2023-04-09T00:17:11;99691.34;;;9.15;66.67
46506;BME280;32220;49.808;9.968;2023-04-09T00:19:38;99663.75;;;9.02;66.88
46506;BME280;32220;49.808;9.968;2023-04-09T00:22:06;99683.44;;;9.15;67.03
46506;BME280;32220;49.808;9.968;2023-04-09T00:24:35;99683.63;;;9.10;66.53
46506;BME280;32220;49.808;9.968;2023-04-09T00:27:03;99688.03;;;9.10;66.41
46506;BME280;32220;49.808;9.968;2023-04-09T00:29:31;99694.00;;;9.15;66.19
46506;BME280;32220;49.808;9.968;2023-04-09T00:32:01;99690.50;;;9.14;66.83
46506;BME280;32220;49.808;9.968;2023-04-09T00:34:29;99689.63;;;9.14;66.42
46506;BME280;32220;49.808;9.968;2023-04-09T00:36:57;99690.56;;;9.13;66.41
46506;BME280;32220;49.808;9.968;2023-04-09T00:39:25;99691.41;;;9.13;66.82
46506;BME280;32220;49.808;9.968;2023-04-09T00:41:56;99688.78;;;9.13;66.25
46506;BME280;32220;49.808;9.968;2023-04-09T00:44:25;99688.78;;;9.13;66.28
46506;BME280;32220;49.808;9.968;2023-04-09T00:46:53;99686.06;;;9.15;66.47
46506;BME280;32220;49.808;9.968;2023-04-09T00:49:21;99683.50;;;9.13;66.30
46506;BME280;32220;49.808;9.968;2023-04-09T00:51:51;99685.22;;;9.14;66.21
46506;BME280;32220;49.808;9.968;2023-04-09T00:54:20;99696.66;;;9.15;66.33
46506;BME280;32220;49.808;9.968;2023-04-09T00:56:48;99691.25;;;9.16;66.11
46506;BME280;32220;49.808;9.968;2023-04-09T00:59:18;99672.31;;;9.07;66.09
46506;BME280;32220;49.808;9.968;2023-04-09T01:01:46;99693.03;;;9.16;65.93
46506;BME280;32220;49.808;9.968;2023-04-09T01:04:13;99691.34;;;9.15;66.38
46506;BME280;32220;49.808;9.968;2023-04-09T01:06:47;99686.19;;;9.12;65.93
46506;BME280;32220;49.808;9.968;2023-04-09T01:09:22;99686.31;;;9.09;66.21
46506;BME280;32220;49.808;9.968;2023-04-09T01:12:04;99693.03;;;9.16;66.23
46506;BME280;32220;49.808;9.968;2023-04-09T01:14:44;99697.47;;;9.15;65.78
46506;BME280;32220;49.808;9.968;2023-04-09T01:17:21;99682.75;;;9.10;66.00
46506;BME280;32220;49.808;9.968;2023-04-09T01:19:58;99684.59;;;9.08;66.14
46506;BME280;32220;49.808;9.968;2023-04-09T01:22:35;99687.91;;;9.13;65.84
46506;BME280;32220;49.808;9.968;2023-04-09T01:25:18;99672.13;;;9.11;66.34
46506;BME280;32220;49.808;9.968;2023-04-09T01:30:28;99679.31;;;9.08;66.83
46506;BME280;32220;49.808;9.968;2023-04-09T01:32:56;99673.22;;;9.06;67.23
46506;BME280;32220;49.808;9.968;2023-04-09T01:35:26;99676.75;;;9.06;67.41
46506;BME280;32220;49.808;9.968;2023-04-09T01:37:55;99671.50;;;9.05;67.27
46506;BME280;32220;49.808;9.968;2023-04-09T01:40:23;99679.44;;;9.05;67.20
46506;BME280;32220;49.808;9.968;2023-04-09T01:42:52;99682.03;;;9.06;67.26
46506;BME280;32220;49.808;9.968;2023-04-09T01:45:21;99682.88;;;9.07;67.62
46506;BME280;32220;49.808;9.968;2023-04-09T01:47:52;99678.59;;;9.04;67.90
46506;BME280;32220;49.808;9.968;2023-04-09T01:50:22;99681.16;;;9.06;67.82
46506;BME280;32220;49.808;9.968;2023-04-09T01:52:50;99681.22;;;9.04;67.81
46506;BME280;32220;49.808;9.968;2023-04-09T01:55:18;99682.09;;;9.05;67.73
46506;BME280;32220;49.808;9.968;2023-04-09T01:57:46;99673.28;;;9.04;67.91
46506;BME280;32220;49.808;9.968;2023-04-09T02:00:14;99672.72;;;8.97;67.97
46506;BME280;32220;49.808;9.968;2023-04-09T02:02:46;99679.44;;;9.05;67.88
46506;BME280;32220;49.808;9.968;2023-04-09T02:05:18;99648.53;;;8.86;67.68
46506;BME280;32220;49.808;9.968;2023-04-09T02:07:53;99686.38;;;9.07;67.35
46506;BME280;32220;49.808;9.968;2023-04-09T02:10:23;99682.09;;;9.05;67.84
46506;BME280;32220;49.808;9.968;2023-04-09T02:12:54;99686.56;;;9.02;67.93
46506;BME280;32220;49.808;9.968;2023-04-09T02:15:23;99686.56;;;9.02;67.81
46506;BME280;32220;49.808;9.968;2023-04-09T02:17:51;99680.66;;;8.97;67.77
46506;BME280;32220;49.808;9.968;2023-04-09T02:20:20;99684.88;;;9.02;67.57
46506;BME280;32220;49.808;9.968;2023-04-09T02:22:48;99684.88;;;9.02;67.48
46506;BME280;32220;49.808;9.968;2023-04-09T02:25:16;99686.72;;;8.99;67.59
46506;BME280;32220;49.808;9.968;2023-04-09T02:27:44;99697.22;;;9.01;67.91
46506;BME280;32220;49.808;9.968;2023-04-09T02:30:12;99691.09;;;9.00;67.39
46506;BME280;32220;49.808;9.968;2023-04-09T02:32:39;99686.06;;;8.94;67.90
46506;BME280;32220;49.808;9.968;2023-04-09T02:35:07;99686.72;;;8.99;67.38
46506;BME280;32220;49.808;9.968;2023-04-09T02:37:38;99690.16;;;9.02;67.49
46506;BME280;32220;49.808;9.968;2023-04-09T02:40:06;99681.44;;;8.99;67.77
46506;BME280;32220;49.808;9.968;2023-04-09T02:42:34;99687.59;;;9.00;67.35
46506;BME280;32220;49.808;9.968;2023-04-09T02:45:02;99689.31;;;9.01;67.31
46506;BME280;32220;49.808;9.968;2023-04-09T02:47:32;99662.56;;;8.88;67.37
46506;BME280;32220;49.808;9.968;2023-04-09T02:49:59;99685.81;;;9.00;67.40
46506;BME280;32220;49.808;9.968;2023-04-09T02:52:30;99684.09;;;8.99;67.52
46506;BME280;32220;49.808;9.968;2023-04-09T02:55:00;99680.59;;;8.99;67.55
46506;BME280;32220;49.808;9.968;2023-04-09T02:57:27;99681.44;;;8.99;67.44
46506;BME280;32220;49.808;9.968;2023-04-09T02:59:55;99682.38;;;8.98;67.68
46506;BME280;32220;49.808;9.968;2023-04-09T03:02:23;99676.28;;;8.96;67.97
46506;BME280;32220;49.808;9.968;2023-04-09T03:04:51;99675.41;;;8.96;68.34
46506;BME280;32220;49.808;9.968;2023-04-09T03:07:19;99672.84;;;8.94;68.79
46506;BME280;32220;49.808;9.968;2023-04-09T03:09:47;99671.13;;;8.93;68.58
46506;BME280;32220;49.808;9.968;2023-04-09T03:12:17;99670.25;;;8.93;69.04
46506;BME280;32220;49.808;9.968;2023-04-09T03:14:45;99671.13;;;8.93;68.46
46506;BME280;32220;49.808;9.968;2023-04-09T03:17:13;99672.97;;;8.91;69.25
46506;BME280;32220;49.808;9.968;2023-04-09T03:19:41;99661.69;;;8.88;69.83
46506;BME280;32220;49.808;9.968;2023-04-09T03:22:09;99666.13;;;8.87;69.75
46506;BME280;32220;49.808;9.968;2023-04-09T03:24:37;99666.13;;;8.87;69.54
46506;BME280;32220;49.808;9.968;2023-04-09T03:27:06;99641.16;;;8.74;69.41
46506;BME280;32220;49.808;9.968;2023-04-09T03:29:35;99590.44;;;8.46;70.11
46506;BME280;32220;49.808;9.968;2023-04-09T03:32:04;99662.50;;;8.90;69.83
46506;BME280;32220;49.808;9.968;2023-04-09T03:34:31;99655.41;;;8.90;69.67
46506;BME280;32220;49.808;9.968;2023-04-09T03:36:59;99659.84;;;8.90;69.67
46506;BME280;32220;49.808;9.968;2023-04-09T03:39:30;99658.13;;;8.89;69.89
46506;BME280;32220;49.808;9.968;2023-04-09T03:41:57;99657.28;;;8.88;69.49
46506;BME280;32220;49.808;9.968;2023-04-09T03:44:31;99655.56;;;8.87;70.29
46506;BME280;32220;49.808;9.968;2023-04-09T03:47:07;99640.06;;;8.78;70.71
46506;BME280;32220;49.808;9.968;2023-04-09T03:49:36;99659.13;;;8.86;70.56
46506;BME280;32220;49.808;9.968;2023-04-09T03:52:15;99645.22;;;8.81;70.55
46506;BME280;32220;49.808;9.968;2023-04-09T03:54:47;99656.59;;;8.83;71.15
46506;BME280;32220;49.808;9.968;2023-04-09T03:57:19;99654.06;;;8.80;70.94
46506;BME280;32220;49.808;9.968;2023-04-09T03:59:50;99655.78;;;8.81;70.98
46506;BME280;32220;49.808;9.968;2023-04-09T04:02:22;99661.13;;;8.80;70.78
46506;BME280;32220;49.808;9.968;2023-04-09T04:04:59;99669.91;;;8.80;70.77
46506;BME280;32220;49.808;9.968;2023-04-09T04:07:31;99667.34;;;8.79;71.17
46506;BME280;32220;49.808;9.968;2023-04-09T04:10:06;99663.19;;;8.73;71.06
46506;BME280;32220;49.808;9.968;2023-04-09T04:12:35;99663.06;;;8.76;71.81
46506;BME280;32220;49.808;9.968;2023-04-09T04:15:07;99664.91;;;8.74;71.54
46506;BME280;32220;49.808;9.968;2023-04-09T04:17:51;99665.84;;;8.73;71.80
46506;BME280;32220;49.808;9.968;2023-04-09T04:20:33;99666.69;;;8.74;71.97
46506;BME280;32220;49.808;9.968;2023-04-09T04:23:07;99664.91;;;8.74;72.08
46506;BME280;32220;49.808;9.968;2023-04-09T04:25:39;99676.41;;;8.73;72.12
46506;BME280;32220;49.808;9.968;2023-04-09T04:28:09;99672.03;;;8.72;72.79
46506;BME280;32220;49.808;9.968;2023-04-09T04:30:40;99660.94;;;8.64;71.93
46506;BME280;32220;49.808;9.968;2023-04-09T04:33:10;99678.19;;;8.73;72.32
46506;BME280;32220;49.808;9.968;2023-04-09T04:35:44;99668.00;;;8.63;72.04
46506;BME280;32220;49.808;9.968;2023-04-09T04:38:31;99660.03;;;8.65;72.00
46506;BME280;32220;49.808;9.968;2023-04-09T04:41:02;99681.69;;;8.73;71.76
46506;BME280;32220;49.808;9.968;2023-04-09T04:43:32;99664.19;;;8.71;72.29
46506;BME280;32220;49.808;9.968;2023-04-09T04:46:00;99679.03;;;8.73;71.70
46506;BME280;32220;49.808;9.968;2023-04-09T04:48:32;99680.63;;;8.77;71.80
46506;BME280;32220;49.808;9.968;2023-04-09T04:51:01;99675.22;;;8.80;71.34
46506;BME280;32220;49.808;9.968;2023-04-09T04:53:39;99687.44;;;8.83;71.39
46506;BME280;32220;49.808;9.968;2023-04-09T04:56:12;99690.00;;;8.84;71.10
46506;BME280;32220;49.808;9.968;2023-04-09T04:58:46;99673.63;;;8.76;71.41
46506;BME280;32220;49.808;9.968;2023-04-09T05:01:17;99680.63;;;8.77;71.15
46506;BME280;32220;49.808;9.968;2023-04-09T05:03:46;99695.03;;;8.90;70.80
46506;BME280;32220;49.808;9.968;2023-04-09T05:06:26;99682.75;;;8.89;70.82
46506;BME280;32220;49.808;9.968;2023-04-09T05:08:56;99695.56;;;8.98;70.71
46506;BME280;32220;49.808;9.968;2023-04-09T05:11:26;99688.44;;;9.00;71.08
46506;BME280;32220;49.808;9.968;2023-04-09T05:13:54;99691.59;;;9.09;70.67
46506;BME280;32220;49.808;9.968;2023-04-09T05:16:23;99697.56;;;9.14;70.90
46506;BME280;32220;49.808;9.968;2023-04-09T05:19:01;99691.88;;;9.23;70.89
46506;BME280;32220;49.808;9.968;2023-04-09T05:21:29;99692.31;;;9.32;70.54
46506;BME280;32220;49.808;9.968;2023-04-09T05:23:57;99698.06;;;9.42;69.91
46506;BME280;32220;49.808;9.968;2023-04-09T05:26:29;99692.22;;;9.54;70.08
46506;BME280;32220;49.808;9.968;2023-04-09T05:28:58;99690.09;;;9.62;69.79
46506;BME280;32220;49.808;9.968;2023-04-09T05:31:26;99694.31;;;9.66;69.85
46506;BME280;32220;49.808;9.968;2023-04-09T05:34:06;99695.16;;;9.67;69.85
46506;BME280;32220;49.808;9.968;2023-04-09T05:36:38;99704.88;;;9.66;69.85
46506;BME280;32220;49.808;9.968;2023-04-09T05:39:06;99708.63;;;9.62;70.32
46506;BME280;32220;49.808;9.968;2023-04-09T05:41:34;99709.66;;;9.58;70.38
46506;BME280;32220;49.808;9.968;2023-04-09T05:44:24;99712.31;;;9.58;70.66
46506;BME280;32220;49.808;9.968;2023-04-09T05:46:57;99711.53;;;9.56;70.36
46506;BME280;32220;49.808;9.968;2023-04-09T05:49:32;99717.72;;;9.55;70.27
46506;BME280;32220;49.808;9.968;2023-04-09T05:52:03;99719.31;;;9.59;69.95
46506;BME280;32220;49.808;9.968;2023-04-09T05:54:32;99691.97;;;9.40;70.08
46506;BME280;32220;49.808;9.968;2023-04-09T05:57:00;99660.41;;;9.17;70.06
46506;BME280;32220;49.808;9.968;2023-04-09T05:59:28;99723.03;;;9.55;69.79
46506;BME280;32220;49.808;9.968;2023-04-09T06:01:56;99722.59;;;9.64;69.57
46506;BME280;32220;49.808;9.968;2023-04-09T06:04:24;99727.75;;;9.67;69.43
46506;BME280;32220;49.808;9.968;2023-04-09T06:06:53;99724.56;;;9.80;68.60
46506;BME280;32220;49.808;9.968;2023-04-09T06:09:25;99714.16;;;9.77;67.83
46506;BME280;32220;49.808;9.968;2023-04-09T06:11:53;99729.47;;;9.89;67.46
46506;BME280;32220;49.808;9.968;2023-04-09T06:14:21;99737.16;;;9.93;66.85
46506;BME280;32220;49.808;9.968;2023-04-09T06:16:49;99732.38;;;10.01;66.65
46506;BME280;32220;49.808;9.968;2023-04-09T06:19:17;99739.97;;;10.09;66.67
46506;BME280;32220;49.808;9.968;2023-04-09T06:21:45;99739.50;;;10.20;66.02
46506;BME280;32220;49.808;9.968;2023-04-09T06:24:14;99742.88;;;10.23;65.40
46506;BME280;32220;49.808;9.968;2023-04-09T06:26:42;99743.81;;;10.22;65.24
46506;BME280;32220;49.808;9.968;2023-04-09T06:29:10;99746.31;;;10.25;64.97
46506;BME280;32220;49.808;9.968;2023-04-09T06:31:38;99747.72;;;10.32;64.99
46506;BME280;32220;49.808;9.968;2023-04-09T06:34:05;99709.53;;;10.19;64.17
46506;BME280;32220;49.808;9.968;2023-04-09T06:36:33;99752.19;;;10.68;64.21
46506;BME280;32220;49.808;9.968;2023-04-09T06:39:02;99723.03;;;10.68;63.84
46506;BME280;32220;49.808;9.968;2023-04-09T06:41:32;99758.19;;;11.07;63.24
46506;BME280;32220;49.808;9.968;2023-04-09T06:44:06;99771.47;;;11.25;62.79
46506;BME280;32220;49.808;9.968;2023-04-09T06:46:34;99784.63;;;11.43;61.70
46506;BME280;32220;49.808;9.968;2023-04-09T06:49:02;99781.41;;;11.71;60.83
46506;BME280;32220;49.808;9.968;2023-04-09T06:51:30;99780.34;;;12.24;60.05
46506;BME280;32220;49.808;9.968;2023-04-09T06:53:58;99792.38;;;12.63;58.00
46506;BME280;32220;49.808;9.968;2023-04-09T06:56:26;99803.88;;;12.79;57.49
46506;BME280;32220;49.808;9.968;2023-04-09T06:58:55;99737.78;;;12.57;56.49
46506;BME280;32220;49.808;9.968;2023-04-09T07:01:23;99785.50;;;12.90;56.81
46506;BME280;32220;49.808;9.968;2023-04-09T07:03:52;99800.41;;;13.08;56.21
46506;BME280;32220;49.808;9.968;2023-04-09T07:06:20;99803.09;;;13.08;56.07
46506;BME280;32220;49.808;9.968;2023-04-09T07:08:47;99790.66;;;12.93;55.17
46506;BME280;32220;49.808;9.968;2023-04-09T07:11:15;99808.31;;;12.94;55.03
46506;BME280;32220;49.808;9.968;2023-04-09T07:13:43;99807.31;;;12.97;55.27
46506;BME280;32220;49.808;9.968;2023-04-09T07:16:12;99812.25;;;13.03;54.89
46506;BME280;32220;49.808;9.968;2023-04-09T07:18:40;99813.38;;;13.14;54.15
46506;BME280;32220;49.808;9.968;2023-04-09T07:21:08;99811.50;;;13.16;53.67
46506;BME280;32220;49.808;9.968;2023-04-09T07:23:36;99819.06;;;13.38;53.88
46506;BME280;32220;49.808;9.968;2023-04-09T07:26:04;99820.28;;;13.62;54.25
46506;BME280;32220;49.808;9.968;2023-04-09T07:28:32;99829.56;;;13.85;53.09
46506;BME280;32220;49.808;9.968;2023-04-09T07:31:00;99834.91;;;13.99;52.44
46506;BME280;32220;49.808;9.968;2023-04-09T07:33:30;99829.50;;;14.29;52.75
46506;BME280;32220;49.808;9.968;2023-04-09T07:35:58;99836.44;;;14.60;52.19
46506;BME280;32220;49.808;9.968;2023-04-09T07:38:27;99835.41;;;15.04;51.14
46506;BME280;32220;49.808;9.968;2023-04-09T07:40:55;99820.88;;;15.62;51.31
46506;BME280;32220;49.808;9.968;2023-04-09T07:43:23;99843.19;;;16.26;49.36
46506;BME280;32220;49.808;9.968;2023-04-09T07:45:51;99837.69;;;16.52;50.77
46506;BME280;32220;49.808;9.968;2023-04-09T07:48:19;99849.66;;;16.72;48.22
46506;BME280;32220;49.808;9.968;2023-04-09T07:50:48;99866.03;;;17.17;45.61
46506;BME280;32220;49.808;9.968;2023-04-09T07:53:16;99871.25;;;17.90;44.60
46506;BME280;32220;49.808;9.968;2023-04-09T07:55:44;99887.00;;;18.85;42.19
46506;BME280;32220;49.808;9.968;2023-04-09T07:58:12;99890.16;;;19.88;40.36
46506;BME280;32220;49.808;9.968;2023-04-09T08:00:40;99911.50;;;20.63;38.57
46506;BME280;32220;49.808;9.968;2023-04-09T08:03:08;99916.09;;;21.91;37.28
46506;BME280;32220;49.808;9.968;2023-04-09T08:05:36;99909.84;;;22.75;35.06
46506;BME280;32220;49.808;9.968;2023-04-09T08:08:06;99925.69;;;23.35;34.27
46506;BME280;32220;49.808;9.968;2023-04-09T08:10:34;99925.84;;;23.60;33.55
46506;BME280;32220;49.808;9.968;2023-04-09T08:13:02;99924.84;;;23.79;33.12
46506;BME280;32220;49.808;9.968;2023-04-09T08:15:30;99920.31;;;23.97;33.05
46506;BME280;32220;49.808;9.968;2023-04-09T08:17:58;99925.38;;;24.36;32.14
46506;BME280;32220;49.808;9.968;2023-04-09T08:20:28;99924.03;;;24.92;31.53
46506;BME280;32220;49.808;9.968;2023-04-09T08:22:55;99925.31;;;24.80;31.28
46506;BME280;32220;49.808;9.968;2023-04-09T08:25:25;99908.34;;;24.69;30.85
46506;BME280;32220;49.808;9.968;2023-04-09T08:27:53;99884.38;;;24.83;30.64
46506;BME280;32220;49.808;9.968;2023-04-09T08:30:22;99923.53;;;25.64;30.29
46506;BME280;32220;49.808;9.968;2023-04-09T08:32:50;99936.59;;;25.85;28.59
46506;BME280;32220;49.808;9.968;2023-04-09T08:35:18;99927.38;;;27.47;28.10
46506;BME280;32220;49.808;9.968;2023-04-09T08:37:46;99947.97;;;28.86;25.94
46506;BME280;32220;49.808;9.968;2023-04-09T08:40:14;99945.56;;;30.08;25.41
46506;BME280;32220;49.808;9.968;2023-04-09T08:42:44;99958.25;;;31.14;23.55
46506;BME280;32220;49.808;9.968;2023-04-09T08:45:12;99960.94;;;31.48;22.37
46506;BME280;32220;49.808;9.968;2023-04-09T08:47:41;99945.09;;;31.37;22.70
46506;BME280;32220;49.808;9.968;2023-04-09T08:50:10;99932.97;;;31.12;22.28
46506;BME280;32220;49.808;9.968;2023-04-09T08:52:38;99941.47;;;31.77;22.31
46506;BME280;32220;49.808;9.968;2023-04-09T08:55:07;99952.97;;;32.54;21.20
46506;BME280;32220;49.808;9.968;2023-04-09T08:57:36;99952.16;;;34.02;20.30
46506;BME280;32220;49.808;9.968;2023-04-09T09:00:07;99953.03;;;35.08;19.23
46506;BME280;32220;49.808;9.968;2023-04-09T09:02:35;99948.75;;;35.49;19.07
46506;BME280;32220;49.808;9.968;2023-04-09T09:05:05;99955.31;;;35.66;18.32
46506;BME280;32220;49.808;9.968;2023-04-09T09:07:33;99957.47;;;35.82;18.65
46506;BME280;32220;49.808;9.968;2023-04-09T09:10:01;99937.41;;;36.05;18.90
46506;BME280;32220;49.808;9.968;2023-04-09T09:12:31;99965.78;;;35.94;17.60
46506;BME280;32220;49.808;9.968;2023-04-09T09:14:59;99936.91;;;34.12;18.67
46506;BME280;32220;49.808;9.968;2023-04-09T09:17:28;99929.91;;;34.41;20.13
46506;BME280;32220;49.808;9.968;2023-04-09T09:19:56;99937.44;;;33.89;19.11
46506;BME280;32220;49.808;9.968;2023-04-09T09:22:25;99946.63;;;33.12;18.89
46506;BME280;32220;49.808;9.968;2023-04-09T09:24:53;99915.84;;;32.31;20.09
46506;BME280;32220;49.808;9.968;2023-04-09T09:27:32;99907.16;;;31.95;20.88
46506;BME280;32220;49.808;9.968;2023-04-09T09:30:02;99929.34;;;32.53;20.07
46506;BME280;32220;49.808;9.968;2023-04-09T09:32:33;99937.69;;;33.37;18.68
46506;BME280;32220;49.808;9.968;2023-04-09T09:35:04;99921.53;;;33.60;18.31
46506;BME280;32220;49.808;9.968;2023-04-09T09:37:32;99923.53;;;33.84;18.90
46506;BME280;32220;49.808;9.968;2023-04-09T09:40:01;99928.66;;;34.37;18.27
46506;BME280;32220;49.808;9.968;2023-04-09T09:42:29;99933.81;;;34.27;17.92
46506;BME280;32220;49.808;9.968;2023-04-09T09:44:58;99920.88;;;33.00;18.73
46506;BME280;32220;49.808;9.968;2023-04-09T09:47:28;99920.91;;;32.87;18.86
46506;BME280;32220;49.808;9.968;2023-04-09T09:49:58;99917.84;;;33.22;18.97
46506;BME280;32220;49.808;9.968;2023-04-09T09:52:26;99910.63;;;33.40;19.58
46506;BME280;32220;49.808;9.968;2023-04-09T09:54:56;99910.34;;;33.55;18.26
46506;BME280;32220;49.808;9.968;2023-04-09T09:57:30;99884.22;;;32.62;18.22
46506;BME280;32220;49.808;9.968;2023-04-09T10:00:00;99916.94;;;32.24;18.15
46506;BME280;32220;49.808;9.968;2023-04-09T10:02:40;99910.78;;;32.41;19.20
46506;BME280;32220;49.808;9.968;2023-04-09T10:05:11;99902.38;;;32.50;18.50
46506;BME280;32220;49.808;9.968;2023-04-09T10:07:40;99896.44;;;32.86;18.74
46506;BME280;32220;49.808;9.968;2023-04-09T10:10:08;99895.91;;;33.22;17.71
46506;BME280;32220;49.808;9.968;2023-04-09T10:12:37;99890.00;;;33.25;18.35
46506;BME280;32220;49.808;9.968;2023-04-09T10:15:08;99897.25;;;32.99;17.90
46506;BME280;32220;49.808;9.968;2023-04-09T10:17:36;99921.09;;;32.92;17.58
46506;BME280;32220;49.808;9.968;2023-04-09T10:20:11;99913.31;;;32.69;17.12
46506;BME280;32220;49.808;9.968;2023-04-09T10:22:42;99914.66;;;31.19;18.49
46506;BME280;32220;49.808;9.968;2023-04-09T10:25:12;99900.72;;;30.23;19.71
46506;BME280;32220;49.808;9.968;2023-04-09T10:27:41;99896.78;;;29.18;20.11
46506;BME280;32220;49.808;9.968;2023-04-09T10:30:30;99892.28;;;31.08;20.09
46506;BME280;32220;49.808;9.968;2023-04-09T10:33:08;99887.59;;;32.31;18.55
46506;BME280;32220;49.808;9.968;2023-04-09T10:35:38;99888.97;;;31.67;18.52
46506;BME280;32220;49.808;9.968;2023-04-09T10:38:07;99888.00;;;32.74;17.88
46506;BME280;32220;49.808;9.968;2023-04-09T10:40:40;99895.97;;;31.76;18.09
46506;BME280;32220;49.808;9.968;2023-04-09T10:43:08;99841.13;;;30.12;19.09
46506;BME280;32220;49.808;9.968;2023-04-09T10:45:41;99889.03;;;29.36;20.78
46506;BME280;32220;49.808;9.968;2023-04-09T10:48:12;99864.47;;;28.33;21.22
46506;BME280;32220;49.808;9.968;2023-04-09T10:50:43;99847.13;;;28.64;22.66
46506;BME280;32220;49.808;9.968;2023-04-09T10:53:20;99859.19;;;30.62;19.63
46506;BME280;32220;49.808;9.968;2023-04-09T10:55:50;99847.13;;;32.26;19.48
46506;BME280;32220;49.808;9.968;2023-04-09T10:58:18;99877.72;;;33.21;18.51
46506;BME280;32220;49.808;9.968;2023-04-09T11:00:47;99875.56;;;34.62;16.88
46506;BME280;32220;49.808;9.968;2023-04-09T11:03:23;99866.94;;;35.79;15.76
46506;BME280;32220;49.808;9.968;2023-04-09T11:06:01;99887.00;;;36.51;15.11
46506;BME280;32220;49.808;9.968;2023-04-09T11:08:32;99884.97;;;36.47;15.11
46506;BME280;32220;49.808;9.968;2023-04-09T11:11:01;99860.03;;;37.28;15.36
46506;BME280;32220;49.808;9.968;2023-04-09T11:13:30;99861.59;;;38.09;14.80
46506;BME280;32220;49.808;9.968;2023-04-09T11:15:58;99881.63;;;38.50;13.98
46506;BME280;32220;49.808;9.968;2023-04-09T11:18:29;99875.88;;;39.07;13.88
46506;BME280;32220;49.808;9.968;2023-04-09T11:21:01;99854.72;;;39.93;14.22
46506;BME280;32220;49.808;9.968;2023-04-09T11:23:30;99878.03;;;40.61;12.00
46506;BME280;32220;49.808;9.968;2023-04-09T11:25:58;99872.34;;;40.41;11.53
46506;BME280;32220;49.808;9.968;2023-04-09T11:28:26;99855.09;;;37.59;12.58
46506;BME280;32220;49.808;9.968;2023-04-09T11:30:54;99856.44;;;36.11;13.74
46506;BME280;32220;49.808;9.968;2023-04-09T11:33:22;99856.03;;;34.20;14.93
46506;BME280;32220;49.808;9.968;2023-04-09T11:35:57;99836.53;;;32.50;16.07
46506;BME280;32220;49.808;9.968;2023-04-09T11:38:30;99840.91;;;32.77;16.08
46506;BME280;32220;49.808;9.968;2023-04-09T11:40:58;99829.19;;;34.40;16.27
46506;BME280;32220;49.808;9.968;2023-04-09T11:43:26;99830.03;;;35.80;15.28
46506;BME280;32220;49.808;9.968;2023-04-09T11:45:54;99799.63;;;36.68;14.95
46506;BME280;32220;49.808;9.968;2023-04-09T11:48:22;99839.91;;;37.16;13.90
46506;BME280;32220;49.808;9.968;2023-04-09T11:50:50;99850.31;;;37.66;13.36
46506;BME280;32220;49.808;9.968;2023-04-09T11:53:19;99846.09;;;38.08;14.34
46506;BME280;32220;49.808;9.968;2023-04-09T11:55:50;99852.69;;;38.74;12.85
46506;BME280;32220;49.808;9.968;2023-04-09T11:58:21;99846.16;;;39.24;13.50
46506;BME280;32220;49.808;9.968;2023-04-09T12:00:52;99859.94;;;39.63;12.12
46506;BME280;32220;49.808;9.968;2023-04-09T12:03:26;99862.44;;;39.21;12.53
46506;BME280;32220;49.808;9.968;2023-04-09T12:05:54;99848.38;;;39.44;13.16
46506;BME280;32220;49.808;9.968;2023-04-09T12:08:22;99855.81;;;39.92;11.59
46506;BME280;32220;49.808;9.968;2023-04-09T12:10:52;99842.50;;;39.94;11.59
46506;BME280;32220;49.808;9.968;2023-04-09T12:13:20;99856.22;;;40.38;11.38
46506;BME280;32220;49.808;9.968;2023-04-09T12:15:48;99859.19;;;39.99;11.36
46506;BME280;32220;49.808;9.968;2023-04-09T12:18:16;99854.75;;;39.98;11.48
46506;BME280;32220;49.808;9.968;2023-04-09T12:20:46;99843.81;;;40.50;11.68
46506;BME280;32220;49.808;9.968;2023-04-09T12:23:15;99845.63;;;41.24;11.30
46506;BME280;32220;49.808;9.968;2023-04-09T12:25:44;99848.25;;;41.81;11.08
46506;BME280;32220;49.808;9.968;2023-04-09T12:28:15;99849.16;;;42.22;10.25
46506;BME280;32220;49.808;9.968;2023-04-09T12:30:43;99835.94;;;41.42;10.53
46506;BME280;32220;49.808;9.968;2023-04-09T12:33:11;99815.47;;;41.06;10.75
46506;BME280;32220;49.808;9.968;2023-04-09T12:35:38;99838.06;;;39.93;11.12
46506;BME280;32220;49.808;9.968;2023-04-09T12:38:06;99832.63;;;39.81;11.42
46506;BME280;32220;49.808;9.968;2023-04-09T12:40:34;99822.53;;;39.97;10.67
46506;BME280;32220;49.808;9.968;2023-04-09T12:43:02;99832.53;;;39.93;11.24
46506;BME280;32220;49.808;9.968;2023-04-09T12:45:32;99834.00;;;40.06;10.95
46506;BME280;32220;49.808;9.968;2023-04-09T12:47:59;99828.50;;;40.48;10.77
46506;BME280;32220;49.808;9.968;2023-04-09T12:50:27;99821.41;;;39.93;11.12
46506;BME280;32220;49.808;9.968;2023-04-09T12:52:55;99837.03;;;39.02;11.66
46506;BME280;32220;49.808;9.968;2023-04-09T12:55:23;99821.25;;;37.52;12.32
46506;BME280;32220;49.808;9.968;2023-04-09T12:57:50;99779.19;;;35.76;13.48
46506;BME280;32220;49.808;9.968;2023-04-09T13:00:18;99801.69;;;34.40;14.15
46506;BME280;32220;49.808;9.968;2023-04-09T13:02:48;99803.72;;;32.94;14.87
46506;BME280;32220;49.808;9.968;2023-04-09T13:05:17;99792.91;;;32.02;15.73
46506;BME280;32220;49.808;9.968;2023-04-09T13:07:45;99790.72;;;32.57;15.67
46506;BME280;32220;49.808;9.968;2023-04-09T13:10:12;99786.88;;;33.92;14.66
46506;BME280;32220;49.808;9.968;2023-04-09T13:12:40;99772.47;;;35.12;14.41
46506;BME280;32220;49.808;9.968;2023-04-09T13:15:09;99787.84;;;35.80;13.71
46506;BME280;32220;49.808;9.968;2023-04-09T13:17:36;99769.75;;;36.54;14.89
46506;BME280;32220;49.808;9.968;2023-04-09T13:20:07;99768.72;;;37.52;14.57
46506;BME280;32220;49.808;9.968;2023-04-09T13:22:35;99796.13;;;36.03;13.36